AHN weather

Athens Ben Epps Airport
Athens, Georgia, United States

Public forecast

Using degrees Fahrenheit for public forecast. Weather courtesy of forecast.io.

Current aviation weather report (METAR) for Athens Ben Epps Airport

Retrieved 2020/05/27 11:51 UTC (15 minutes ago):

KAHN 271151Z 07005KT 10SM OVC008 21/18 A3004 RMK AO2 SLP165 70002 T02060178 10206 20200 53008

Aviation forecast (TAF) for Athens Ben Epps Airport

Retrieved 2020/05/27 12:40 UTC (0 seconds ago):

TAF KAHN 271138Z 2712/2812 07010KT P6SM OVC008 FM271400 08010KT 6SM -SHRA BR OVC010 FM272100 10007KT P6SM VCSH OVC020 FM280200 10007KT P6SM VCSH BKN040 FM280500 12006KT P6SM BKN018